Time;durP1;ratioP1;P1;durP2;ratioP2;P2;SDS_P1;SDS_P2;PMS_P1;PMS_P2;Temp;Humidity;BMP_temperature;BMP_pressure;BME280_temperature;BME280_humidity;BME280_pressure;Samples;Min_cycle;Max_cycle;Signal;HPM_P1;HPM_P2
2023/10/13 00:01:25;;;;;;;10.10;3.60;;;;;;;25.35;36.62;97024.13;5114505;28;20522;-31
2023/10/13 00:03:54;;;;;;;10.10;3.33;;;;;;;25.54;36.45;97015.97;5100790;27;20032;-32
2023/10/13 00:06:19;;;;;;;7.93;3.20;;;;;;;25.47;36.68;97019.31;5096606;28;20016;-31
2023/10/13 00:08:45;;;;;;;7.07;3.83;;;;;;;25.52;36.60;97016.50;5096496;28;20059;-31
2023/10/13 00:11:15;;;;;;;9.45;4.70;;;;;;;25.57;36.88;97021.28;5094913;28;20066;-31
2023/10/13 00:13:43;;;;;;;7.88;3.90;;;;;;;25.46;37.11;97023.34;5096248;28;20028;-31
2023/10/13 00:16:21;;;;;;;5.53;3.25;;;;;;;25.70;36.98;97026.28;5104147;28;20089;-31
2023/10/13 00:18:48;;;;;;;11.50;4.18;;;;;;;25.61;37.34;97023.78;5096769;28;20414;-32
2023/10/13 00:21:35;;;;;;;7.55;4.03;;;;;;;25.49;37.78;97025.09;5096320;28;20492;-32
2023/10/13 00:24:12;;;;;;;9.15;4.38;;;;;;;25.35;38.23;97024.88;5095379;28;20044;-31
2023/10/13 00:26:37;;;;;;;8.90;3.70;;;;;;;25.50;38.31;97032.91;5096680;28;20019;-32
2023/10/13 00:31:36;;;;;;;7.20;3.58;;;;;;;25.42;38.56;97031.94;5096654;28;23079;-31
2023/10/13 00:37:12;;;;;;;10.70;3.83;;;;;;;25.55;37.81;97012.69;5096613;28;20024;-32
2023/10/13 00:39:36;;;;;;;8.02;3.72;;;;;;;25.40;38.28;97007.47;5095758;28;20023;-31
2023/10/13 00:42:06;;;;;;;10.18;3.50;;;;;;;25.46;37.70;97009.47;5094673;28;20024;-31
2023/10/13 00:44:38;;;;;;;9.55;3.78;;;;;;;25.30;37.75;97011.81;5095959;28;20103;-31
2023/10/13 00:47:07;;;;;;;8.68;3.33;;;;;;;25.36;37.99;97015.28;5099761;28;20043;-31
2023/10/13 00:49:39;;;;;;;8.00;3.17;;;;;;;25.47;37.89;97016.53;5098252;28;20027;-31
2023/10/13 00:52:06;;;;;;;10.68;3.80;;;;;;;25.44;37.83;97014.78;5114131;27;20399;-31
2023/10/13 00:54:35;;;;;;;6.90;3.50;;;;;;;25.53;37.63;97014.47;5099459;28;20027;-31
2023/10/13 00:57:07;;;;;;;9.73;3.63;;;;;;;25.68;37.63;97009.38;5095751;28;20048;-31
2023/10/13 00:59:36;;;;;;;7.97;3.70;;;;;;;25.46;37.79;97012.25;5095435;28;20470;-32
2023/10/13 01:02:37;;;;;;;10.10;3.60;;;;;;;25.48;37.79;97002.13;5095342;28;20024;-31
2023/10/13 01:04:47;;;;;;;7.20;4.03;;;;;;;25.52;37.59;97002.59;5095655;28;20043;-31
2023/10/13 01:07:15;;;;;;;5.43;3.28;;;;;;;25.58;37.26;97008.91;5096012;28;20459;-31
2023/10/13 01:09:50;;;;;;;9.77;3.90;;;;;;;25.50;37.54;97004.38;5095749;28;20051;-31
2023/10/13 01:12:16;;;;;;;8.93;3.67;;;;;;;25.45;37.32;97013.50;5095369;28;20394;-32
2023/10/13 01:14:41;;;;;;;7.10;3.15;;;;;;;25.36;37.42;97006.97;5094047;28;20020;-31
2023/10/13 01:17:07;;;;;;;5.82;3.35;;;;;;;25.41;37.41;97014.53;5095661;28;20528;-31
2023/10/13 01:19:42;;;;;;;8.90;3.67;;;;;;;25.54;37.97;97004.88;5098280;28;20027;-31
2023/10/13 01:22:07;;;;;;;8.27;3.50;;;;;;;25.57;37.60;97003.84;5097689;28;20028;-31
2023/10/13 01:24:36;;;;;;;9.90;3.63;;;;;;;25.49;37.41;97005.66;5094906;28;20045;-31
2023/10/13 01:27:17;;;;;;;12.10;3.58;;;;;;;25.55;37.41;97006.38;5094967;28;20031;-33
2023/10/13 01:29:58;;;;;;;9.27;4.05;;;;;;;25.41;38.07;97016.53;5094833;28;20102;-31
2023/10/13 01:32:24;;;;;;;7.10;3.95;;;;;;;25.54;37.96;97008.41;5095455;28;20485;-31
2023/10/13 01:34:49;;;;;;;7.72;3.40;;;;;;;25.61;37.86;97009.91;5101848;27;20019;-31
2023/10/13 01:37:19;;;;;;;6.15;3.47;;;;;;;25.58;37.55;97011.69;5094803;28;20031;-31
2023/10/13 01:39:49;;;;;;;7.10;3.60;;;;;;;25.61;37.45;97004.34;5094733;28;20016;-31
2023/10/13 01:42:19;;;;;;;8.93;3.83;;;;;;;25.37;37.94;97013.28;5094578;28;20103;-31
2023/10/13 01:44:45;;;;;;;6.22;3.55;;;;;;;25.14;38.32;97007.06;5094532;28;20028;-31
2023/10/13 01:47:12;;;;;;;9.15;3.90;;;;;;;25.49;37.83;97000.09;5094618;28;20023;-31
2023/10/13 01:49:47;;;;;;;7.95;3.60;;;;;;;25.51;37.58;97001.09;5094933;28;20027;-31
2023/10/13 01:52:17;;;;;;;8.18;3.40;;;;;;;25.53;37.82;96995.78;5094657;28;20070;-31
2023/10/13 01:54:46;;;;;;;11.40;4.20;;;;;;;25.50;37.91;96996.06;5094340;28;20387;-31
2023/10/13 01:57:17;;;;;;;10.70;3.65;;;;;;;25.30;37.89;96997.91;5101840;28;20069;-31
2023/10/13 01:59:49;;;;;;;7.70;3.70;;;;;;;25.38;38.04;96993.34;5094346;28;20102;-31
2023/10/13 02:02:26;;;;;;;5.57;3.42;;;;;;;25.29;38.18;96995.66;5094136;28;20081;-31
2023/10/13 02:05:00;;;;;;;7.18;3.88;;;;;;;25.48;37.66;97001.34;5094467;28;20027;-31
2023/10/13 02:07:34;;;;;;;7.80;4.07;;;;;;;25.35;38.18;97005.44;5094184;28;20371;-31
2023/10/13 02:10:03;;;;;;;7.95;3.67;;;;;;;25.17;38.47;96999.75;5094480;28;20019;-31
2023/10/13 02:12:36;;;;;;;6.72;3.50;;;;;;;25.15;38.21;96991.91;5094470;28;20061;-31
2023/10/13 02:15:04;;;;;;;;;;;;;;;25.23;37.98;96992.13;5094319;28;20028;-31
2023/10/13 02:17:40;;;;;;;6.72;3.33;;;;;;;25.21;37.67;96997.47;5094094;28;19915;-31
2023/10/13 02:20:14;;;;;;;10.07;3.55;;;;;;;25.33;37.54;97002.47;5094131;28;20107;-31
2023/10/13 02:22:48;;;;;;;7.97;3.17;;;;;;;25.26;37.38;97005.75;5094161;28;20061;-31
2023/10/13 02:25:35;;;;;;;8.18;3.45;;;;;;;25.29;37.30;97006.75;5101124;28;20031;-31
2023/10/13 02:28:08;;;;;;;5.30;3.40;;;;;;;25.07;37.03;96996.50;5093752;28;20023;-31
2023/10/13 02:30:50;;;;;;;7.07;3.20;;;;;;;25.15;37.19;97008.56;5094236;28;20081;-31
2023/10/13 02:33:21;;;;;;;9.52;3.05;;;;;;;25.12;37.06;97006.81;5093965;28;20024;-31
2023/10/13 02:35:53;;;;;;;8.60;3.85;;;;;;;25.07;36.96;97004.06;5093746;28;20015;-31
2023/10/13 02:38:27;;;;;;;11.10;3.58;;;;;;;25.19;37.05;97008.31;5099542;28;20493;-31
2023/10/13 02:40:54;;;;;;;7.18;2.70;;;;;;;25.21;36.57;97006.53;5093849;28;20016;-31
2023/10/13 02:43:22;;;;;;;7.07;3.42;;;;;;;25.23;36.50;96998.44;5093781;28;20475;-31
2023/10/13 02:45:58;;;;;;;7.07;2.92;;;;;;;25.16;36.69;97001.00;5093614;28;20027;-32
2023/10/13 02:48:25;;;;;;;7.05;3.47;;;;;;;25.31;36.14;96998.69;5093589;28;20031;-31
2023/10/13 02:50:57;;;;;;;8.68;3.42;;;;;;;25.35;35.71;96988.78;5093251;28;20476;-31
2023/10/13 02:53:22;;;;;;;5.82;3.03;;;;;;;25.30;35.48;96991.59;5092614;28;20468;-32
2023/10/13 02:55:52;;;;;;;10.68;3.88;;;;;;;25.15;35.89;96989.13;5094340;28;20103;-31
2023/10/13 02:58:18;;;;;;;12.15;3.55;;;;;;;25.17;35.58;96991.41;5094236;28;20107;-31
2023/10/13 03:00:45;;;;;;;8.30;3.10;;;;;;;25.12;35.83;96984.59;5093574;28;20101;-31
2023/10/13 03:03:14;;;;;;;10.10;3.42;;;;;;;25.27;35.39;96976.72;5100984;28;20020;-31
2023/10/13 03:05:40;;;;;;;8.18;3.38;;;;;;;25.11;35.81;96994.19;5093427;28;20020;-31
2023/10/13 03:08:06;;;;;;;6.80;3.03;;;;;;;25.16;35.97;96985.09;5093679;28;20047;-31
2023/10/13 03:10:39;;;;;;;8.13;3.30;;;;;;;25.28;35.78;96978.25;5093560;28;20020;-31
2023/10/13 03:13:08;;;;;;;10.48;3.30;;;;;;;25.21;36.30;96992.66;5093641;28;20032;-31
2023/10/13 03:15:35;;;;;;;10.15;3.30;;;;;;;25.25;36.09;96987.59;5093577;28;20397;-31
2023/10/13 03:18:02;;;;;;;10.27;3.53;;;;;;;25.31;36.09;96998.69;5093333;28;20471;-31
2023/10/13 03:20:31;;;;;;;8.10;3.05;;;;;;;25.24;36.28;96985.31;5100860;28;20074;-31
2023/10/13 03:22:58;;;;;;;8.90;3.08;;;;;;;25.30;36.27;96997.16;5093390;28;20471;-32
2023/10/13 03:25:28;;;;;;;8.40;3.15;;;;;;;25.27;36.33;96993.38;5093562;28;20363;-31
2023/10/13 03:30:30;;;;;;;8.23;3.20;;;;;;;25.20;36.75;96991.16;5093630;28;20039;-31
2023/10/13 03:32:56;;;;;;;5.77;3.10;;;;;;;25.15;36.57;97000.25;5093135;28;20028;-31
2023/10/13 03:35:24;;;;;;;13.50;3.40;;;;;;;25.16;36.73;96995.44;5092100;28;20399;-31
2023/10/13 03:37:54;;;;;;;9.88;3.40;;;;;;;25.16;36.96;97001.00;5094510;28;20057;-31
2023/10/13 03:43:00;;;;;;;9.02;3.35;;;;;;;24.88;37.18;96992.72;5099177;28;20015;-31
2023/10/13 03:45:26;;;;;;;6.93;4.05;;;;;;;24.97;37.58;96992.50;5100421;28;20050;-31
2023/10/13 03:47:52;;;;;;;7.88;4.07;;;;;;;25.09;37.00;96993.97;5104170;28;20028;-31
2023/10/13 03:50:29;;;;;;;8.48;3.50;;;;;;;25.15;37.00;96997.47;5096888;28;20413;-31
2023/10/13 03:52:58;;;;;;;8.48;4.15;;;;;;;24.99;37.74;96990.69;5096903;28;20047;-31
2023/10/13 03:55:27;;;;;;;11.65;4.25;;;;;;;25.18;36.95;96985.34;5096620;28;20099;-31
2023/10/13 03:57:59;;;;;;;6.03;3.42;;;;;;;25.12;37.37;96997.72;5096944;28;20538;-31
2023/10/13 04:00:26;;;;;;;7.22;3.30;;;;;;;25.10;37.21;96983.63;5097030;28;20020;-31
2023/10/13 04:03:07;;;;;;;8.93;3.97;;;;;;;25.12;37.44;96990.16;5096811;28;20119;-31
2023/10/13 04:29:45;;;;;;;12.98;3.50;;;;;;;25.09;37.59;96993.97;5096503;28;20027;-31
2023/10/13 04:32:14;;;;;;;7.85;3.35;;;;;;;25.17;37.68;96985.84;5096150;28;20024;-32
2023/10/13 04:34:45;;;;;;;7.35;3.70;;;;;;;25.18;37.58;96993.69;5095071;28;20455;-31
2023/10/13 04:37:28;;;;;;;13.57;3.97;;;;;;;25.00;37.85;96988.69;5095982;28;20371;-31
2023/10/13 04:39:57;;;;;;;5.97;3.17;;;;;;;24.87;38.21;96988.44;5096122;28;20482;-31
2023/10/13 04:43:32;;;;;;;7.93;3.72;;;;;;;25.20;37.45;96979.28;5095682;28;20044;-32
2023/10/13 04:50:45;;;;;;;6.10;3.25;;;;;;;25.07;37.75;96985.41;5095637;28;20498;-31
2023/10/13 04:56:08;;;;;;;6.47;3.50;;;;;;;24.86;38.11;96995.25;5095773;28;20032;-31
2023/10/13 05:44:53;;;;;;;7.00;3.83;;;;;;;25.08;37.27;97041.66;5094642;28;20494;-31
2023/10/13 06:28:40;;;;;;;7.50;3.40;;;;;;;25.21;36.60;97084.25;5050170;28;20036;-31
2023/10/13 06:31:07;;;;;;;11.93;3.45;;;;;;;25.06;36.92;97089.34;5050694;28;20488;-31
2023/10/13 06:33:35;;;;;;;6.00;3.65;;;;;;;25.14;36.77;97086.78;5050592;28;20546;-31
2023/10/13 06:36:03;;;;;;;7.85;3.50;;;;;;;25.05;37.34;97098.94;5050561;28;20033;-31
2023/10/13 06:38:36;;;;;;;6.30;3.97;;;;;;;25.13;37.06;97102.69;5050345;28;20195;-33
2023/10/13 06:41:07;;;;;;;;;;;;;;;25.07;37.35;97103.97;5045047;28;20116;-31
2023/10/13 06:43:40;;;;;;;8.23;4.18;;;;;;;25.07;37.59;97103.97;5043150;28;19915;-31
2023/10/13 06:46:14;;;;;;;6.03;3.28;;;;;;;25.15;37.59;97099.41;5050756;28;20032;-31
2023/10/13 06:48:41;;;;;;;6.65;4.10;;;;;;;25.02;38.27;97105.47;5050416;28;20474;-31
2023/10/13 06:51:21;;;;;;;8.15;3.92;;;;;;;25.18;37.97;97106.72;5050368;28;20056;-31
2023/10/13 06:53:48;;;;;;;8.38;3.97;;;;;;;25.12;38.09;97111.50;5083876;28;20036;-31
2023/10/13 06:56:27;;;;;;;6.97;3.55;;;;;;;25.31;38.09;97116.03;5099297;28;20024;-32
2023/10/13 06:58:59;;;;;;;7.97;3.20;;;;;;;25.10;38.43;97119.63;5093933;28;20077;-31
2023/10/13 07:01:27;;;;;;;7.57;3.60;;;;;;;25.27;38.37;97121.09;5093668;28;20053;-31
2023/10/13 07:03:53;;;;;;;6.90;3.75;;;;;;;25.18;38.83;97117.81;5093364;28;20016;-31
2023/10/13 07:06:22;;;;;;;10.45;3.95;;;;;;;25.12;39.06;97117.81;5092158;28;20020;-32
2023/10/13 07:08:51;;;;;;;9.32;4.13;;;;;;;25.12;39.22;97119.84;5093270;28;20067;-31
2023/10/13 07:11:33;;;;;;;7.50;3.85;;;;;;;25.31;38.58;97116.03;5093945;28;20016;-31
2023/10/13 07:14:00;;;;;;;10.77;4.30;;;;;;;25.35;39.07;97122.06;5096502;28;20039;-31
2023/10/13 07:16:35;;;;;;;8.35;4.60;;;;;;;25.30;39.03;97125.63;5105154;28;20065;-31
2023/10/13 07:19:05;;;;;;;8.40;4.57;;;;;;;25.23;39.53;97128.91;5097329;28;20024;-31
2023/10/13 07:21:33;;;;;;;10.30;4.68;;;;;;;25.18;39.75;97132.47;5104923;28;20022;-31
2023/10/13 07:24:08;;;;;;;13.30;5.72;;;;;;;25.31;39.31;97141.03;5097271;28;20162;-31
2023/10/13 07:26:34;;;;;;;9.93;5.53;;;;;;;25.36;39.49;97145.03;5104840;28;20534;-31
2023/10/13 07:29:00;;;;;;;10.65;4.78;;;;;;;25.21;39.68;97148.13;5097602;28;20032;-31
2023/10/13 07:31:27;;;;;;;10.07;4.75;;;;;;;25.33;39.55;97152.38;5097334;28;20016;-31
2023/10/13 07:33:54;;;;;;;9.32;4.72;;;;;;;25.36;39.83;97151.34;5097107;28;20471;-31
2023/10/13 07:36:33;;;;;;;11.43;4.70;;;;;;;25.38;39.59;97148.81;5097191;28;20070;-31
2023/10/13 07:41:42;;;;;;;10.43;4.60;;;;;;;25.36;39.73;97139.47;5097306;28;20027;-31
2023/10/13 07:44:07;;;;;;;8.90;5.18;;;;;;;25.39;39.80;97147.56;5109295;28;20024;-32
2023/10/13 07:46:35;;;;;;;9.43;5.07;;;;;;;25.21;40.23;97142.56;5096754;28;20099;-31
2023/10/13 07:49:09;;;;;;;12.13;5.53;;;;;;;25.47;39.51;97147.06;5096921;28;20020;-31
2023/10/13 07:51:44;;;;;;;11.18;5.32;;;;;;;25.45;39.91;97149.56;5096376;28;20134;-31
2023/10/13 07:54:13;;;;;;;13.00;6.35;;;;;;;25.36;39.63;97156.91;5096659;28;20482;-31
2023/10/13 07:56:39;;;;;;;13.68;5.93;;;;;;;25.47;39.52;97150.56;5096966;28;20115;-31
2023/10/13 07:59:09;;;;;;;9.63;5.30;;;;;;;25.32;39.55;97150.09;5097162;28;20047;-32
2023/10/13 08:01:35;;;;;;;9.27;4.97;;;;;;;25.32;39.53;97150.88;5104155;28;20097;-31
2023/10/13 08:06:34;;;;;;;11.07;5.75;;;;;;;25.40;39.82;97146.28;5096892;28;20099;-31
2023/10/13 08:09:09;;;;;;;9.00;5.60;;;;;;;25.19;40.52;97156.19;5096378;28;20106;-31
2023/10/13 08:11:38;;;;;;;11.52;5.95;;;;;;;25.55;39.78;97153.59;5096623;28;20016;-31
2023/10/13 08:14:22;;;;;;;9.38;4.47;;;;;;;25.39;40.09;97153.13;5096883;28;20028;-32
2023/10/13 08:19:18;;;;;;;7.32;4.45;;;;;;;25.54;39.85;97163.94;5096908;28;20071;-31
2023/10/13 08:21:58;;;;;;;7.88;3.95;;;;;;;25.70;38.88;97168.72;5096151;28;20034;-32
2023/10/13 08:30:26;;;;;;;8.60;4.22;;;;;;;25.49;39.65;97166.72;5106109;28;20023;-31
2023/10/13 08:32:36;;;;;;;9.35;4.38;;;;;;;25.51;39.61;97166.97;5096261;28;20477;-31
2023/10/13 08:37:32;;;;;;;11.32;4.95;;;;;;;25.69;39.69;97166.47;5096086;28;20020;-31
2023/10/13 09:07:08;;;;;;;6.22;4.22;;;;;;;25.97;39.97;97169.88;5095348;28;20120;-31
2023/10/13 09:15:05;;;;;;;9.27;4.13;;;;;;;26.08;39.12;97172.63;5094967;28;20062;-31
2023/10/13 09:17:34;;;;;;;7.60;4.60;;;;;;;25.93;39.39;97169.41;5095259;28;20356;-31
2023/10/13 09:25:38;;;;;;;10.05;4.22;;;;;;;26.29;38.56;97172.28;5095288;28;20051;-31
2023/10/13 09:28:14;;;;;;;10.93;4.90;;;;;;;26.29;39.07;97166.72;5094883;28;20359;-31
2023/10/13 09:30:47;;;;;;;11.60;4.78;;;;;;;26.13;38.98;97171.81;5102471;28;20016;-31
2023/10/13 09:33:15;;;;;;;16.63;5.15;;;;;;;26.01;39.17;97170.38;5095135;28;20487;-31
2023/10/13 09:35:50;;;;;;;8.40;4.60;;;;;;;26.31;38.51;97175.31;5101586;28;20028;-31
2023/10/13 09:38:17;;;;;;;6.95;4.57;;;;;;;26.28;38.54;97174.31;5094729;28;20031;-31
2023/10/13 09:40:49;;;;;;;11.05;4.55;;;;;;;26.23;38.96;97168.75;5094787;28;20548;-31
2023/10/13 09:43:17;;;;;;;17.08;5.45;;;;;;;26.10;38.73;97167.28;5094880;28;20055;-31
2023/10/13 09:46:07;;;;;;;6.50;4.10;;;;;;;26.21;38.65;97171.31;5094506;28;20035;-31
2023/10/13 09:48:40;;;;;;;7.53;4.30;;;;;;;26.23;38.79;97174.31;5101176;28;20417;-32
2023/10/13 09:51:21;;;;;;;7.88;4.65;;;;;;;26.08;38.59;97169.84;5094494;28;20030;-30
2023/10/13 09:54:19;;;;;;;8.63;4.72;;;;;;;26.17;38.45;97173.59;5094522;28;20024;-32
2023/10/13 09:57:01;;;;;;;10.30;4.93;;;;;;;26.24;38.32;97178.59;5091278;28;20042;-31
2023/10/13 09:59:52;;;;;;;14.95;4.43;;;;;;;26.44;38.15;97172.72;5094423;28;20020;-31
2023/10/13 10:02:25;;;;;;;9.80;4.97;;;;;;;26.35;38.40;97176.53;5094233;28;20047;-31
2023/10/13 10:04:51;;;;;;;11.85;4.80;;;;;;;26.28;37.66;97165.97;5094637;28;20024;-31
2023/10/13 10:07:32;;;;;;;10.25;4.47;;;;;;;26.38;38.13;97166.41;5094507;28;20528;-31
2023/10/13 10:09:59;;;;;;;10.75;4.40;;;;;;;26.51;37.96;97169.38;5094183;28;20500;-31
2023/10/13 10:12:47;;;;;;;14.50;4.57;;;;;;;26.18;37.49;97166.75;5093883;28;20058;-31
2023/10/13 10:15:35;;;;;;;13.68;4.40;;;;;;;26.39;37.43;97159.59;5094149;28;20024;-31
2023/10/13 10:18:04;;;;;;;9.38;4.32;;;;;;;26.66;37.01;97157.91;5094090;28;20023;-31
2023/10/13 10:20:39;;;;;;;8.32;3.78;;;;;;;26.47;37.38;97166.84;5102473;28;20027;-31
2023/10/13 10:23:09;;;;;;;10.65;4.68;;;;;;;26.38;37.54;97158.84;5094050;28;20466;-31
2023/10/13 10:25:37;;;;;;;7.88;4.07;;;;;;;26.45;37.46;97158.31;5100357;28;20391;-31
2023/10/13 10:28:05;;;;;;;10.18;4.28;;;;;;;26.40;37.62;97167.41;5093772;28;20020;-32
2023/10/13 10:30:35;;;;;;;11.80;4.13;;;;;;;26.32;37.72;97160.16;5094064;28;20019;-31
2023/10/13 10:33:08;;;;;;;8.73;5.07;;;;;;;26.59;37.43;97153.63;5093786;28;20016;-31
2023/10/13 10:35:34;;;;;;;9.20;4.15;;;;;;;26.57;37.21;97158.97;5093776;28;20024;-31
2023/10/13 10:41:06;;;;;;;8.68;3.80;;;;;;;26.60;36.96;97152.34;5094173;28;20027;-31
2023/10/13 10:43:46;;;;;;;11.43;4.25;;;;;;;26.53;36.93;97149.38;5093741;28;20024;-31
2023/10/13 10:46:18;;;;;;;10.25;4.30;;;;;;;26.50;36.76;97151.16;5093703;28;20024;-32
2023/10/13 10:48:44;;;;;;;8.00;3.47;;;;;;;26.66;36.63;97144.00;5093755;28;20027;-31
2023/10/13 10:51:14;;;;;;;9.00;4.30;;;;;;;26.43;36.94;97143.38;5093226;28;20374;-31
2023/10/13 10:53:43;;;;;;;9.95;3.45;;;;;;;26.37;36.85;97146.19;5093884;28;20035;-31
2023/10/13 10:56:19;;;;;;;8.45;3.67;;;;;;;26.63;36.39;97140.22;5097441;28;20043;-31
2023/10/13 10:58:54;;;;;;;8.80;3.50;;;;;;;26.40;36.59;97136.06;5096376;28;20020;-32
2023/10/13 11:01:24;;;;;;;12.27;4.18;;;;;;;26.57;36.25;97138.75;5093951;28;20016;-31
2023/10/13 11:03:59;;;;;;;9.77;4.05;;;;;;;26.67;36.21;97135.13;5093766;28;20103;-31
2023/10/13 11:06:28;;;;;;;7.32;3.85;;;;;;;26.47;36.25;97127.16;5093388;28;20024;-31
2023/10/13 11:09:18;;;;;;;12.68;4.43;;;;;;;26.75;36.75;97138.09;5093459;28;20379;-31
2023/10/13 11:11:46;;;;;;;8.93;3.72;;;;;;;26.72;36.15;97139.13;5093458;28;20140;-31
2023/10/13 11:14:22;;;;;;;7.60;3.85;;;;;;;26.52;36.43;97129.16;5093612;28;20037;-31
2023/10/13 11:16:53;;;;;;;9.95;3.65;;;;;;;26.60;36.54;97130.09;5093410;28;20059;-31
2023/10/13 11:19:29;;;;;;;10.07;3.70;;;;;;;26.65;35.95;97120.97;5094300;28;20380;-31
2023/10/13 11:21:55;;;;;;;11.30;3.83;;;;;;;26.56;36.09;97115.75;5093304;28;20073;-32
2023/10/13 11:24:21;;;;;;;8.73;3.80;;;;;;;26.54;35.93;97115.50;5093885;28;20521;-31
2023/10/13 11:26:52;;;;;;;9.13;3.88;;;;;;;26.75;35.84;97102.69;5093647;28;20032;-31
2023/10/13 11:29:19;;;;;;;7.65;3.70;;;;;;;26.57;36.11;97108.91;5093690;28;20020;-31
2023/10/13 11:31:57;;;;;;;11.18;3.53;;;;;;;26.59;35.99;97109.13;5093136;28;20042;-31
2023/10/13 11:34:23;;;;;;;7.38;3.58;;;;;;;26.62;35.91;97105.31;5093393;28;20493;-31
2023/10/13 11:36:48;;;;;;;10.90;3.83;;;;;;;26.66;35.75;97102.25;5093014;28;20031;-31
2023/10/13 11:39:22;;;;;;;11.65;3.78;;;;;;;26.68;35.20;97097.69;5093414;28;20073;-31
2023/10/13 11:41:56;;;;;;;9.93;3.67;;;;;;;26.73;35.25;97093.34;5094176;28;20028;-31
2023/10/13 11:51:38;;;;;;;7.50;3.35;;;;;;;26.73;34.65;97093.34;5092965;28;20052;-31
2023/10/13 11:54:05;;;;;;;7.47;3.45;;;;;;;26.66;34.66;97085.56;5092854;28;20089;-32
2023/10/13 11:56:31;;;;;;;6.38;3.40;;;;;;;26.76;34.49;97090.28;5093293;28;20020;-31
2023/10/13 11:59:01;;;;;;;7.22;3.58;;;;;;;26.63;34.40;97081.78;5094587;28;20097;-30
2023/10/13 12:04:32;;;;;;;7.82;3.10;;;;;;;26.61;34.56;97083.56;5097148;28;20536;-32
2023/10/13 12:04:33;;;;;;;8.32;3.20;;;;;;;26.72;34.07;97075.88;5104218;28;20024;-31
2023/10/13 12:07:14;;;;;;;7.72;3.00;;;;;;;26.69;33.81;97074.16;5096465;28;20063;-31
2023/10/13 12:12:24;;;;;;;10.63;3.83;;;;;;;26.65;34.42;97070.91;5104403;28;20047;-31
2023/10/13 12:14:57;;;;;;;4.75;3.38;;;;;;;26.70;34.33;97064.53;5096800;28;20024;-31
2023/10/13 12:17:36;;;;;;;7.43;3.55;;;;;;;26.81;34.50;97069.25;5096907;28;20024;-31
2023/10/13 12:20:05;;;;;;;8.40;2.90;;;;;;;26.77;34.05;97055.59;5096166;28;20024;-31
2023/10/13 12:22:42;;;;;;;6.40;3.13;;;;;;;26.71;34.11;97043.75;5103955;28;20386;-31
2023/10/13 12:27:59;;;;;;;6.55;3.08;;;;;;;26.82;34.25;97051.28;5096867;28;20032;-31
2023/10/13 12:33:09;;;;;;;12.13;3.97;;;;;;;26.81;33.81;97044.19;5095943;28;20027;-31
2023/10/13 12:52:05;;;;;;;8.82;3.47;;;;;;;26.66;33.82;97030.66;5095708;28;20043;-31
2023/10/13 12:54:36;;;;;;;7.47;3.40;;;;;;;26.77;33.57;97035.38;5095661;28;20067;-31
2023/10/13 12:57:02;;;;;;;6.18;2.97;;;;;;;26.80;33.36;97032.31;5095725;28;20115;-31
2023/10/13 12:59:28;;;;;;;7.75;3.42;;;;;;;26.61;33.65;97020.34;5095341;28;20020;-31
2023/10/13 13:01:54;;;;;;;6.05;3.20;;;;;;;26.71;33.13;97029.84;5096334;28;20016;-31
2023/10/13 13:04:20;;;;;;;7.70;3.03;;;;;;;26.74;33.30;97031.59;5095679;28;20020;-31
2023/10/13 13:06:53;;;;;;;11.00;3.00;;;;;;;26.70;33.08;97033.94;5095405;28;20107;-31
2023/10/13 13:09:28;;;;;;;8.90;3.30;;;;;;;26.82;33.89;97024.19;5103176;28;20370;-31
2023/10/13 13:11:57;;;;;;;9.90;3.53;;;;;;;26.77;33.85;97018.69;5095219;28;20048;-31
2023/10/13 13:14:29;;;;;;;7.00;3.30;;;;;;;26.91;33.43;97008.44;5102745;28;20118;-31
2023/10/13 13:17:04;;;;;;;10.93;4.18;;;;;;;26.80;33.60;97012.84;5095665;28;20046;-31
2023/10/13 13:19:35;;;;;;;6.93;3.10;;;;;;;26.79;33.52;97018.91;5105994;28;20055;-31
2023/10/13 13:22:03;;;;;;;11.70;3.28;;;;;;;26.79;34.24;97014.09;5098669;28;20077;-32
2023/10/13 13:24:29;;;;;;;12.00;3.25;;;;;;;26.69;34.38;97014.97;5108717;28;20040;-31
2023/10/13 13:27:05;;;;;;;6.35;3.13;;;;;;;26.69;34.13;97010.16;5094832;28;20478;-32
2023/10/13 13:29:30;;;;;;;8.45;3.30;;;;;;;26.73;33.95;97009.84;5095096;28;20035;-31
2023/10/13 13:31:56;;;;;;;7.05;3.30;;;;;;;26.66;34.42;97011.19;5094768;28;20024;-31
2023/10/13 13:34:22;;;;;;;9.40;3.90;;;;;;;26.83;34.40;97005.44;5095307;28;20513;-31
2023/10/13 13:36:52;;;;;;;7.72;3.60;;;;;;;26.77;34.45;97007.56;5094954;28;20012;-32
2023/10/13 13:39:28;;;;;;;10.73;3.47;;;;;;;26.83;34.68;97003.41;5095098;28;20047;-31
2023/10/13 13:41:56;;;;;;;10.68;4.05;;;;;;;26.78;34.74;97003.50;5094586;28;20016;-31
2023/10/13 13:44:29;;;;;;;6.88;3.53;;;;;;;27.00;34.30;97005.31;5094721;28;20026;-31
2023/10/13 13:46:56;;;;;;;6.72;3.40;;;;;;;26.83;35.06;97000.63;5102507;28;20443;-31
2023/10/13 13:49:29;;;;;;;6.82;3.83;;;;;;;26.92;34.30;97007.16;5095020;28;20050;-31
2023/10/13 13:51:55;;;;;;;6.68;3.70;;;;;;;26.86;34.48;97006.44;5094830;28;20036;-30
2023/10/13 13:54:21;;;;;;;7.50;3.85;;;;;;;26.88;34.23;96993.53;5094590;28;20390;-31
2023/10/13 13:56:47;;;;;;;7.30;3.35;;;;;;;26.93;34.53;97000.34;5094493;28;20082;-31
2023/10/13 13:59:15;;;;;;;10.60;3.95;;;;;;;26.81;35.14;96994.88;5094321;28;20019;-31
2023/10/13 14:01:44;;;;;;;7.95;3.30;;;;;;;26.94;34.94;96993.50;5095036;28;20016;-31
2023/10/13 14:04:10;;;;;;;7.70;3.70;;;;;;;26.71;34.98;96993.69;5101566;28;20016;-31
2023/10/13 14:06:35;;;;;;;8.02;3.70;;;;;;;26.85;34.58;96980.63;5094464;28;20049;-31
2023/10/13 14:09:14;;;;;;;8.20;3.42;;;;;;;26.95;34.57;96992.97;5094361;28;20038;-31
2023/10/13 14:14:11;;;;;;;10.65;3.40;;;;;;;26.88;34.98;96989.97;5094550;28;20024;-31
2023/10/13 14:16:44;;;;;;;7.40;3.35;;;;;;;26.94;34.55;96983.13;5094195;28;20101;-31
2023/10/13 14:19:11;;;;;;;8.77;3.78;;;;;;;26.99;35.09;96973.19;5094449;28;20024;-31
2023/10/13 14:21:37;;;;;;;7.97;3.83;;;;;;;26.92;35.03;96970.97;5094139;28;20055;-31
2023/10/13 14:24:03;;;;;;;5.25;3.47;;;;;;;26.94;35.39;96974.00;5093857;28;20473;-31
2023/10/13 14:26:28;;;;;;;7.20;3.50;;;;;;;26.93;35.54;96975.28;5094233;28;20035;-31
2023/10/13 14:29:14;;;;;;;6.72;3.67;;;;;;;26.95;35.44;96970.72;5093873;28;20138;-31
2023/10/13 14:31:41;;;;;;;10.82;4.40;;;;;;;26.81;35.51;96969.81;5100089;28;20369;-30
2023/10/13 14:34:07;;;;;;;7.88;3.40;;;;;;;26.80;35.59;96965.53;5093805;28;20031;-32
2023/10/13 14:36:36;;;;;;;9.80;3.92;;;;;;;27.02;35.56;96963.78;5101227;28;20518;-32
2023/10/13 14:39:10;;;;;;;10.57;3.65;;;;;;;26.91;35.63;96970.22;5101480;28;20409;-31
2023/10/13 14:41:37;;;;;;;10.75;3.83;;;;;;;27.04;35.57;96975.16;5093814;28;20020;-31
2023/10/13 14:44:06;;;;;;;9.77;3.83;;;;;;;26.92;36.24;96976.53;5092477;28;20383;-31
2023/10/13 14:46:35;;;;;;;8.40;3.78;;;;;;;26.87;36.49;96972.53;5093665;28;20061;-31
2023/10/13 14:49:02;;;;;;;7.07;3.22;;;;;;;27.02;36.39;96969.34;5093716;28;20065;-31
2023/10/13 14:51:28;;;;;;;9.82;3.75;;;;;;;26.96;36.57;96965.88;5093670;28;20051;-31
2023/10/13 14:53:59;;;;;;;9.02;3.55;;;;;;;26.94;36.88;96966.41;5093803;28;20463;-31
2023/10/13 14:56:26;;;;;;;7.80;3.40;;;;;;;27.09;36.83;96965.97;5093563;28;20070;-31
2023/10/13 14:58:55;;;;;;;6.30;3.10;;;;;;;26.80;37.36;96962.75;5093506;28;20024;-31
2023/10/13 15:01:22;;;;;;;8.63;4.40;;;;;;;26.89;37.66;96966.44;5094240;28;20382;-31
2023/10/13 15:03:50;;;;;;;9.48;3.60;;;;;;;26.98;37.41;96966.88;5093387;28;20024;-31
2023/10/13 15:06:28;;;;;;;12.30;4.03;;;;;;;26.95;37.60;96965.16;5100942;28;20019;-32
2023/10/13 15:08:59;;;;;;;9.50;4.50;;;;;;;26.98;37.45;96963.31;5093998;28;20024;-31
2023/10/13 15:11:36;;;;;;;7.78;4.00;;;;;;;26.89;37.96;96960.88;5100897;28;20073;-31
2023/10/13 15:14:07;;;;;;;8.93;3.72;;;;;;;26.99;37.87;96971.16;5093635;28;20020;-31
2023/10/13 15:16:36;;;;;;;7.88;4.20;;;;;;;26.99;37.95;96962.81;5100181;28;20016;-31
2023/10/13 15:19:06;;;;;;;13.63;4.65;;;;;;;26.96;37.92;96963.09;5093537;28;20057;-31
2023/10/13 15:21:35;;;;;;;9.13;4.00;;;;;;;26.95;38.38;96961.59;5093128;28;20016;-31
2023/10/13 15:24:13;;;;;;;8.52;4.00;;;;;;;26.95;38.41;96965.16;5093511;28;20024;-31
2023/10/13 15:26:45;;;;;;;11.10;3.78;;;;;;;27.13;38.16;96963.66;5093543;28;20069;-31
2023/10/13 15:29:12;;;;;;;10.25;4.22;;;;;;;26.90;38.89;96962.38;5093222;28;20020;-31
2023/10/13 15:31:41;;;;;;;11.23;4.38;;;;;;;27.04;38.69;96964.03;5100897;28;20028;-31